createdAt,value
2022-09-05T00:00:14.984Z,100.00
2022-09-05T00:03:06.581Z,100.00
2022-09-05T00:06:02.166Z,100.00
2022-09-05T00:08:35.741Z,100.00
2022-09-05T00:11:41.278Z,100.00
2022-09-05T00:14:34.142Z,100.00
2022-09-05T00:17:16.276Z,100.00
2022-09-05T00:24:23.214Z,100.00
2022-09-05T00:24:42.067Z,100.00
2022-09-05T00:26:29.678Z,100.00
2022-09-05T00:29:28.899Z,100.00
2022-09-05T00:32:36.784Z,100.00
2022-09-05T00:35:25.958Z,100.00
2022-09-05T00:37:54.279Z,100.00
2022-09-05T00:40:34.306Z,100.00
2022-09-05T00:43:49.122Z,100.00
2022-09-05T00:46:23.738Z,100.00
2022-09-05T00:48:53.942Z,100.00
2022-09-05T00:51:36.713Z,100.00
2022-09-05T00:54:18.969Z,100.00
2022-09-05T00:57:04.351Z,100.00
2022-09-05T01:00:00.444Z,100.00
2022-09-05T01:02:58.540Z,100.00
2022-09-05T01:06:12.072Z,100.00
2022-09-05T01:09:09.197Z,100.00
2022-09-05T01:12:05.762Z,100.00
2022-09-05T01:15:17.550Z,100.00
2022-09-05T01:18:19.937Z,100.00
2022-09-05T01:20:56.193Z,100.00
2022-09-05T01:23:49.185Z,100.00
2022-09-05T01:26:24.795Z,100.00
2022-09-05T01:29:18.483Z,100.00
2022-09-05T01:32:31.446Z,100.00
2022-09-05T01:35:20.872Z,100.00
2022-09-05T01:37:56.312Z,100.00
2022-09-05T01:40:41.927Z,100.00
2022-09-05T01:43:26.506Z,100.00
2022-09-05T01:46:24.983Z,100.00
2022-09-05T01:49:09.651Z,100.00
2022-09-05T01:52:08.223Z,100.00
2022-09-05T01:54:50.573Z,100.00
2022-09-05T01:57:50.122Z,100.00
2022-09-05T02:00:24.738Z,100.00
2022-09-05T02:03:01.155Z,100.00
2022-09-05T02:05:58.317Z,100.00
2022-09-05T02:08:36.278Z,100.00
2022-09-05T02:11:12.090Z,100.00
2022-09-05T02:13:54.475Z,100.00
2022-09-05T02:16:39.488Z,100.00
2022-09-05T02:19:09.816Z,100.00
2022-09-05T02:22:07.887Z,100.00
2022-09-05T02:25:30.527Z,100.00
2022-09-05T02:28:06.748Z,100.00
2022-09-05T02:30:57.619Z,100.00
2022-09-05T02:33:47.879Z,100.00
2022-09-05T02:36:33.465Z,100.00
2022-09-05T02:45:00.756Z,100.00
2022-09-05T02:45:10.693Z,100.00
2022-09-05T02:46:00.327Z,100.00
2022-09-05T02:48:54.796Z,100.00
2022-09-05T02:57:25.700Z,100.00
2022-09-05T02:57:37.039Z,100.00
2022-09-05T02:58:07.116Z,100.00
2022-09-05T03:00:37.037Z,100.00
2022-09-05T03:03:16.666Z,100.00
2022-09-05T03:05:58.942Z,100.00
2022-09-05T03:08:56.986Z,100.00
2022-09-05T03:11:45.605Z,100.00
2022-09-05T03:14:47.710Z,100.00
2022-09-05T03:17:20.698Z,100.00
2022-09-05T03:20:18.782Z,100.00
2022-09-05T03:23:04.268Z,100.00
2022-09-05T03:26:09.016Z,100.00
2022-09-05T03:28:57.975Z,100.00
2022-09-05T03:31:43.669Z,100.00
2022-09-05T03:34:36.829Z,100.00
2022-09-05T03:37:41.345Z,100.00
2022-09-05T03:40:50.431Z,100.00
2022-09-05T03:43:38.570Z,100.00
2022-09-05T03:46:23.922Z,100.00
2022-09-05T03:49:20.029Z,100.00
2022-09-05T03:57:06.421Z,100.00
2022-09-05T03:57:10.632Z,100.00
2022-09-05T03:58:56.406Z,100.00
2022-09-05T04:03:00.025Z,100.00
2022-09-05T04:08:17.883Z,100.00
2022-09-05T04:08:24.100Z,100.00
2022-09-05T04:10:55.786Z,100.00
2022-09-05T04:13:46.728Z,100.00
2022-09-05T04:16:50.065Z,100.00
2022-09-05T04:19:39.654Z,100.00
2022-09-05T04:22:15.514Z,100.00
2022-09-05T04:25:08.279Z,100.00
2022-09-05T04:27:41.729Z,100.00
2022-09-05T04:30:52.187Z,100.00
2022-09-05T04:33:36.101Z,100.00
2022-09-05T04:36:12.078Z,100.00
2022-09-05T04:38:45.928Z,100.00
2022-09-05T04:41:39.040Z,100.00
2022-09-05T04:44:18.168Z,100.00
2022-09-05T04:46:48.900Z,100.00
2022-09-05T04:49:28.298Z,100.00
2022-09-05T04:52:00.171Z,100.00
2022-09-05T04:54:40.383Z,100.00
2022-09-05T04:57:33.817Z,100.00
2022-09-05T05:05:39.356Z,100.00
2022-09-05T05:06:11.030Z,100.00
2022-09-05T05:06:19.941Z,100.00
2022-09-05T05:08:44.731Z,100.00
2022-09-05T05:18:03.037Z,100.00
2022-09-05T05:18:11.663Z,100.00
2022-09-05T05:18:15.330Z,100.00
2022-09-05T05:20:41.748Z,100.00
2022-09-05T05:23:13.777Z,100.00
2022-09-05T05:26:02.060Z,100.00
2022-09-05T05:28:42.446Z,100.00
2022-09-05T05:31:15.082Z,100.00
2022-09-05T05:33:49.331Z,100.00
2022-09-05T05:36:27.009Z,98.23
2022-09-05T05:38:59.918Z,95.50
2022-09-05T05:41:44.320Z,95.31
2022-09-05T05:44:22.550Z,91.85
2022-09-05T05:47:01.124Z,90.98
2022-09-05T05:49:34.986Z,89.58
2022-09-05T05:52:49.457Z,85.18
2022-09-05T05:55:52.872Z,84.24
2022-09-05T05:58:35.508Z,83.49
2022-09-05T06:01:37.332Z,82.58
2022-09-05T06:04:43.300Z,81.17
2022-09-05T06:08:50.434Z,77.83
2022-09-05T06:14:51.405Z,76.21
2022-09-05T06:15:06.123Z,76.24
2022-09-05T06:17:27.831Z,73.85
2022-09-05T06:22:09.001Z,73.73
2022-09-05T06:23:39.386Z,71.65
2022-09-05T06:26:29.112Z,71.95
2022-09-05T06:29:02.076Z,71.90
2022-09-05T06:31:31.621Z,70.16
2022-09-05T06:34:33.044Z,68.51
2022-09-05T06:37:29.751Z,64.39
2022-09-05T06:40:19.114Z,65.64
2022-09-05T06:43:23.792Z,65.42
2022-09-05T06:46:05.916Z,63.68
2022-09-05T06:48:45.627Z,61.73
2022-09-05T06:51:26.097Z,60.59
2022-09-05T06:54:31.448Z,61.44
2022-09-05T06:57:43.964Z,61.27
2022-09-05T07:00:22.103Z,60.41
2022-09-05T07:03:09.196Z,59.94
2022-09-05T07:05:51.506Z,59.79
2022-09-05T07:08:36.551Z,56.89
2022-09-05T07:11:17.290Z,58.14
2022-09-05T07:14:09.189Z,57.32
2022-09-05T07:16:50.185Z,54.11
2022-09-05T07:19:33.364Z,51.85
2022-09-05T07:22:48.897Z,53.42
2022-09-05T07:25:09.470Z,53.45
2022-09-05T07:27:41.848Z,52.11
2022-09-05T07:30:27.610Z,52.18
2022-09-05T07:32:57.088Z,52.41
2022-09-05T07:35:31.178Z,53.11
2022-09-05T07:38:19.027Z,54.23
2022-09-05T07:41:04.311Z,55.48
2022-09-05T07:43:44.324Z,56.21
2022-09-05T07:46:15.804Z,53.79
2022-09-05T07:48:58.296Z,52.08
2022-09-05T07:56:51.196Z,53.63
2022-09-05T07:57:03.851Z,54.43
2022-09-05T07:57:29.957Z,55.39
2022-09-05T08:00:25.729Z,54.32
2022-09-05T08:02:55.668Z,54.14
2022-09-05T08:05:34.566Z,53.03
2022-09-05T08:08:07.440Z,53.19
2022-09-05T08:11:23.542Z,54.13
2022-09-05T08:13:40.838Z,50.93
2022-09-05T08:16:13.575Z,50.00
2022-09-05T08:18:51.062Z,50.99
2022-09-05T08:21:47.516Z,50.21
2022-09-05T08:24:29.482Z,50.04
2022-09-05T08:27:18.252Z,49.32
2022-09-05T08:30:24.709Z,49.54
2022-09-05T08:33:10.465Z,50.37
2022-09-05T08:36:08.554Z,50.55
2022-09-05T08:38:40.941Z,50.57
2022-09-05T08:41:25.986Z,51.57
2022-09-05T08:46:44.583Z,52.23
2022-09-05T08:47:46.727Z,55.07
2022-09-05T08:50:26.896Z,54.21
2022-09-05T08:53:02.844Z,55.81
2022-09-05T08:56:00.901Z,55.23
2022-09-05T08:59:27.119Z,56.79
2022-09-05T09:02:47.646Z,55.90
2022-09-05T09:05:14.366Z,55.94
2022-09-05T09:08:03.258Z,56.00
2022-09-05T09:10:43.772Z,56.50
2022-09-05T09:13:28.468Z,55.15
2022-09-05T09:16:28.418Z,55.45
2022-09-05T09:19:16.746Z,54.36
2022-09-05T09:22:08.509Z,54.73
2022-09-05T09:25:15.193Z,56.18
2022-09-05T09:28:48.578Z,58.39
2022-09-05T09:31:22.666Z,58.46
2022-09-05T09:34:17.690Z,55.87
2022-09-05T09:37:09.178Z,55.26
2022-09-05T09:39:57.497Z,55.82
2022-09-05T09:42:55.199Z,55.21
2022-09-05T09:45:36.296Z,54.02
2022-09-05T09:48:15.731Z,56.74
2022-09-05T09:51:01.827Z,55.98
2022-09-05T09:54:09.164Z,56.68
2022-09-05T09:57:15.668Z,54.63
2022-09-05T10:00:17.845Z,54.20
2022-09-05T10:06:37.864Z,52.54
2022-09-05T10:10:53.558Z,49.86
2022-09-05T10:10:58.213Z,48.10
2022-09-05T10:12:55.195Z,49.68
2022-09-05T10:16:00.241Z,50.58
2022-09-05T10:18:33.738Z,49.95
2022-09-05T10:21:18.030Z,53.11
2022-09-05T10:23:56.314Z,51.70
2022-09-05T10:26:53.998Z,52.23
2022-09-05T10:29:42.902Z,51.20
2022-09-05T10:35:08.676Z,48.55
2022-09-05T10:35:33.299Z,46.78
2022-09-05T10:38:10.457Z,46.07
2022-09-05T10:40:45.412Z,45.11
2022-09-05T10:43:29.366Z,45.62
2022-09-05T10:45:56.246Z,44.06
2022-09-05T10:48:28.687Z,45.97
2022-09-05T10:51:30.217Z,46.97
2022-09-05T10:54:39.361Z,45.19
2022-09-05T10:57:16.117Z,44.73
2022-09-05T11:02:20.362Z,44.41
2022-09-05T11:03:01.241Z,44.83
2022-09-05T11:05:48.271Z,44.49
2022-09-05T11:08:36.506Z,45.46
2022-09-05T11:11:34.155Z,45.91
2022-09-05T11:14:26.398Z,47.60
2022-09-05T11:17:00.516Z,47.65
2022-09-05T11:19:38.313Z,47.07
2022-09-05T11:22:22.449Z,45.50
2022-09-05T11:25:04.917Z,45.00
2022-09-05T11:27:36.835Z,44.79
2022-09-05T11:30:08.204Z,45.53
2022-09-05T11:39:53.051Z,45.43
2022-09-05T11:39:55.072Z,43.18
2022-09-05T11:39:59.544Z,46.18
2022-09-05T11:42:02.214Z,43.24
2022-09-05T11:44:57.026Z,42.92
2022-09-05T11:47:44.603Z,42.55
2022-09-05T11:50:46.667Z,43.01
2022-09-05T11:53:52.999Z,43.35
2022-09-05T11:56:44.069Z,44.19
2022-09-05T11:59:33.642Z,43.34
2022-09-05T12:02:26.911Z,45.66
2022-09-05T12:05:47.578Z,44.38
2022-09-05T12:08:26.266Z,45.17
2022-09-05T12:11:21.706Z,44.86
2022-09-05T12:14:13.693Z,43.18
2022-09-05T12:16:51.064Z,43.74
2022-09-05T12:20:06.579Z,43.57
2022-09-05T12:22:54.904Z,45.70
2022-09-05T12:26:26.785Z,45.71
2022-09-05T12:29:36.315Z,46.82
2022-09-05T12:32:49.464Z,47.10
2022-09-05T12:36:07.008Z,46.94
2022-09-05T12:39:59.599Z,45.76
2022-09-05T12:41:38.634Z,45.38
2022-09-05T12:44:42.166Z,44.78
2022-09-05T12:47:16.831Z,44.14
2022-09-05T12:50:02.753Z,43.92
2022-09-05T12:52:32.577Z,43.82
2022-09-05T12:55:28.226Z,44.57
2022-09-05T13:02:54.946Z,45.04
2022-09-05T13:03:04.084Z,45.06
2022-09-05T13:04:18.052Z,45.68
2022-09-05T13:06:53.854Z,43.79
2022-09-05T13:10:39.443Z,44.11
2022-09-05T13:14:52.661Z,43.18
2022-09-05T13:15:28.683Z,43.62
2022-09-05T13:18:19.112Z,44.53
2022-09-05T13:20:59.430Z,44.25
2022-09-05T13:23:48.689Z,44.25
2022-09-05T13:26:43.606Z,43.99
2022-09-05T13:29:18.792Z,43.37
2022-09-05T13:38:02.536Z,44.32
2022-09-05T13:38:16.014Z,45.94
2022-09-05T13:38:30.693Z,46.62
2022-09-05T13:40:41.159Z,45.59
2022-09-05T13:43:13.018Z,46.78
2022-09-05T13:45:55.373Z,46.20
2022-09-05T13:52:28.118Z,46.67
2022-09-05T13:55:16.481Z,46.70
2022-09-05T13:57:49.169Z,46.93
2022-09-05T14:00:41.640Z,46.29
2022-09-05T14:03:47.564Z,46.72
2022-09-05T14:10:33.357Z,48.09
2022-09-05T14:13:11.869Z,48.66
2022-09-05T14:15:52.765Z,48.48
2022-09-05T14:18:24.815Z,49.16
2022-09-05T14:21:19.722Z,51.19
2022-09-05T14:24:14.511Z,48.44
2022-09-05T14:26:47.752Z,50.09
2022-09-05T14:29:27.404Z,50.20
2022-09-05T14:37:49.770Z,51.04
2022-09-05T14:37:50.570Z,50.58
2022-09-05T14:38:16.912Z,51.49
2022-09-05T14:41:12.163Z,51.75
2022-09-05T14:44:24.064Z,52.63
2022-09-05T14:47:35.061Z,51.32
2022-09-05T14:50:09.565Z,51.54
2022-09-05T14:52:43.681Z,50.31
2022-09-05T15:02:41.910Z,50.46
2022-09-05T15:02:53.005Z,51.71
2022-09-05T15:06:37.794Z,53.29
2022-09-05T15:11:24.267Z,52.42
2022-09-05T15:12:27.883Z,53.94
2022-09-05T15:14:58.683Z,52.99
2022-09-05T15:17:27.598Z,54.17
2022-09-05T15:20:07.481Z,53.52
2022-09-05T15:22:38.041Z,52.50
2022-09-05T15:25:21.609Z,52.42
2022-09-05T15:27:49.848Z,51.98
2022-09-05T15:30:35.928Z,52.17
2022-09-05T15:33:31.040Z,52.81
2022-09-05T15:35:59.274Z,52.88
2022-09-05T15:38:55.262Z,53.39
2022-09-05T15:41:29.447Z,51.15
2022-09-05T15:44:02.833Z,52.50
2022-09-05T15:46:47.090Z,53.34
2022-09-05T15:49:35.000Z,53.23
2022-09-05T15:52:16.831Z,54.68
2022-09-05T15:54:49.934Z,57.39
2022-09-05T15:57:27.705Z,56.27
2022-09-05T16:00:05.344Z,56.97
2022-09-05T16:02:38.212Z,55.97
2022-09-05T16:10:31.448Z,57.70
2022-09-05T16:10:47.005Z,60.57
2022-09-05T16:12:05.166Z,62.93
2022-09-05T16:14:28.767Z,63.86
2022-09-05T16:22:30.415Z,65.21
2022-09-05T16:23:25.287Z,66.95
2022-09-05T16:23:39.331Z,67.87
2022-09-05T16:26:42.985Z,69.12
2022-09-05T16:29:19.520Z,69.73
2022-09-05T16:32:02.679Z,70.97
2022-09-05T16:34:36.116Z,71.49
2022-09-05T16:37:12.680Z,72.34
2022-09-05T16:39:56.310Z,72.81
2022-09-05T16:42:52.893Z,73.72
2022-09-05T16:45:27.550Z,73.85
2022-09-05T16:48:04.122Z,74.77
2022-09-05T16:50:51.753Z,75.45
2022-09-05T16:53:30.355Z,75.44
2022-09-05T16:56:08.835Z,75.83
2022-09-05T16:58:56.742Z,76.91
2022-09-05T17:01:42.186Z,77.83
2022-09-05T17:04:28.593Z,78.47
2022-09-05T17:07:24.197Z,79.22
2022-09-05T17:09:51.516Z,79.86
2022-09-05T17:12:29.442Z,80.46
2022-09-05T17:15:02.847Z,80.74
2022-09-05T17:18:20.568Z,80.98
2022-09-05T17:20:47.127Z,81.77
2022-09-05T17:27:42.839Z,82.24
2022-09-05T17:29:38.202Z,82.99
2022-09-05T17:29:49.900Z,82.62
2022-09-05T17:32:00.980Z,82.62
2022-09-05T17:34:50.059Z,83.23
2022-09-05T17:37:22.957Z,84.77
2022-09-05T17:39:56.097Z,84.20
2022-09-05T17:42:36.569Z,86.18
2022-09-05T17:45:54.421Z,86.36
2022-09-05T17:49:18.046Z,86.85
2022-09-05T17:52:17.060Z,86.92
2022-09-05T17:55:12.802Z,87.84
2022-09-05T17:57:41.494Z,87.29
2022-09-05T18:00:43.702Z,88.45
2022-09-05T18:03:10.990Z,88.00
2022-09-05T18:05:57.241Z,88.84
2022-09-05T18:08:46.702Z,88.65
2022-09-05T18:11:25.855Z,88.20
2022-09-05T18:14:01.397Z,88.27
2022-09-05T18:16:53.695Z,89.25
2022-09-05T18:20:06.459Z,89.40
2022-09-05T18:22:41.601Z,90.19
2022-09-05T18:25:30.612Z,90.44
2022-09-05T18:28:22.801Z,90.56
2022-09-05T18:30:51.794Z,89.94
2022-09-05T18:33:53.810Z,91.10
2022-09-05T18:36:18.630Z,91.90
2022-09-05T18:39:24.891Z,91.41
2022-09-05T18:41:56.427Z,92.10
2022-09-05T18:44:55.329Z,91.75
2022-09-05T18:47:51.054Z,92.65
2022-09-05T18:50:27.798Z,92.56
2022-09-05T18:53:10.352Z,92.72
2022-09-05T18:56:13.789Z,92.98
2022-09-05T18:58:51.981Z,92.72
2022-09-05T19:01:31.808Z,92.54
2022-09-05T19:04:07.431Z,92.64
2022-09-05T19:06:46.130Z,92.33
2022-09-05T19:09:26.853Z,93.43
2022-09-05T19:12:31.560Z,93.27
2022-09-05T19:14:56.532Z,92.87
2022-09-05T19:17:37.858Z,93.14
2022-09-05T19:20:31.898Z,93.07
2022-09-05T19:23:14.380Z,92.96
2022-09-05T19:25:47.687Z,94.06
2022-09-05T19:36:45.183Z,94.31
2022-09-05T19:36:52.543Z,94.35
2022-09-05T19:37:11.014Z,93.72
2022-09-05T19:37:29.625Z,94.32
2022-09-05T19:46:17.037Z,93.89
2022-09-05T19:47:42.609Z,94.71
2022-09-05T19:47:45.334Z,94.49
2022-09-05T19:48:34.892Z,94.82
2022-09-05T19:51:18.689Z,94.49
2022-09-05T19:54:04.867Z,93.51
2022-09-05T19:56:34.620Z,95.77
2022-09-05T19:59:02.694Z,95.42
2022-09-05T20:01:34.462Z,96.00
2022-09-05T20:04:02.370Z,96.52
2022-09-05T20:06:31.251Z,96.39
2022-09-05T20:09:14.346Z,96.55
2022-09-05T20:11:47.261Z,96.62
2022-09-05T20:14:26.191Z,95.27
2022-09-05T20:16:57.443Z,96.48
2022-09-05T20:19:30.455Z,96.67
2022-09-05T20:22:11.440Z,96.32
2022-09-05T20:24:52.845Z,96.10
2022-09-05T20:27:27.136Z,97.46
2022-09-05T20:30:17.504Z,97.26
2022-09-05T20:43:12.249Z,97.52
2022-09-05T20:43:20.648Z,97.44
2022-09-05T20:43:28.035Z,98.01
2022-09-05T20:44:50.936Z,97.59
2022-09-05T20:51:26.337Z,98.49
2022-09-05T20:54:17.372Z,98.17
2022-09-05T20:54:24.765Z,98.50
2022-09-05T20:56:24.402Z,98.95
2022-09-05T20:59:01.848Z,98.43
2022-09-05T21:01:32.941Z,98.26
2022-09-05T21:04:02.807Z,97.33
2022-09-05T21:06:35.140Z,97.46
2022-09-05T21:09:24.893Z,97.49
2022-09-05T21:11:54.800Z,98.51
2022-09-05T21:14:27.921Z,97.95
2022-09-05T21:17:04.961Z,98.79
2022-09-05T21:19:47.980Z,98.13
2022-09-05T21:22:25.724Z,98.32
2022-09-05T21:25:17.832Z,97.75
2022-09-05T21:28:07.658Z,97.67
2022-09-05T21:30:45.454Z,97.40
2022-09-05T21:33:29.477Z,97.56
2022-09-05T21:36:20.525Z,97.22
2022-09-05T21:38:47.801Z,97.78
2022-09-05T21:41:27.371Z,98.85
2022-09-05T21:47:40.907Z,98.93
2022-09-05T21:47:49.668Z,98.11
2022-09-05T21:49:35.716Z,99.03
2022-09-05T21:52:08.643Z,98.78
2022-09-05T21:59:22.542Z,98.42
2022-09-05T21:59:25.012Z,98.05
2022-09-05T22:00:22.676Z,98.55
2022-09-05T22:02:51.742Z,98.69
2022-09-05T22:05:25.845Z,98.56
2022-09-05T22:07:55.247Z,98.91
2022-09-05T22:10:33.863Z,98.43
2022-09-05T22:13:13.592Z,98.93
2022-09-05T22:15:40.718Z,98.04
2022-09-05T22:18:27.065Z,98.21
2022-09-05T22:21:31.680Z,97.79
2022-09-05T22:23:45.408Z,98.46
2022-09-05T22:26:13.648Z,97.80
2022-09-05T22:28:49.207Z,97.54
2022-09-05T22:31:18.015Z,98.08
2022-09-05T22:33:45.768Z,99.45
2022-09-05T22:36:18.345Z,98.87
2022-09-05T22:38:45.878Z,99.06
2022-09-05T22:41:13.677Z,100.00
2022-09-05T22:43:41.312Z,99.95
2022-09-05T22:46:08.884Z,99.94
2022-09-05T22:48:37.630Z,99.79
2022-09-05T22:51:05.456Z,99.96
2022-09-05T22:53:32.381Z,99.68
2022-09-05T22:56:06.408Z,99.13
2022-09-05T22:58:41.803Z,99.80
2022-09-05T23:01:09.670Z,100.00
2022-09-05T23:03:36.590Z,100.00
2022-09-05T23:06:08.752Z,100.00
2022-09-05T23:08:36.253Z,100.00
2022-09-05T23:11:14.208Z,100.00
2022-09-05T23:13:41.911Z,100.00
2022-09-05T23:16:10.237Z,100.00
2022-09-05T23:18:37.650Z,100.00
2022-09-05T23:21:09.055Z,100.00
2022-09-05T23:23:37.327Z,100.00
2022-09-05T23:26:06.493Z,100.00
2022-09-05T23:28:33.859Z,100.00
2022-09-05T23:31:01.836Z,100.00
2022-09-05T23:33:29.521Z,100.00
2022-09-05T23:36:07.540Z,100.00
2022-09-05T23:38:35.516Z,99.85
2022-09-05T23:41:07.843Z,100.00
2022-09-05T23:43:35.679Z,99.54
2022-09-05T23:46:03.027Z,99.62
2022-09-05T23:48:30.553Z,98.51
2022-09-05T23:50:57.995Z,98.48
2022-09-05T23:53:25.169Z,99.21
2022-09-05T23:55:52.261Z,98.89
2022-09-05T23:58:19.272Z,98.84
